aviador You're here:

KMSS Decoded Metar

MASSENA in NY, USA
Report Time2018-05-20 18:53:00
UTC Time2018-05-20 19:28:29
Flight Rules vfr VFR
Wind300° at 07 kt
W.Decomp.*RWY 27: 5.0 kt HW 4.9 kt RCW
RWY 23: 0.7 kt HW 7.0 kt RCW
W.Rank300° ranks 15
Current wind is below 300° avg. (8.3)
Visibility9999 m
Phenomena:N/A
Clouds:Broken 031 Hf
Expected CloudBase > 2,800 ft AGL from Temp-Dew spread
Ceiling3,100 ft
Temp17°C (ISA +2)
Dew Point10°C (64% RH)
AAT14.6°C
QNH1017 hPa
Density Alt535 ft
Elevation217 ft
Report Wrong Elevation
Raw Report
KMSS 201853Z AUTO 30007KT 10SM BKN031 17/10 A3003 RMK AO2 SLP169
T01720100=

Extra information for KMSS:More info

Metar Taf Metar & Taf Last 4 Metars F.Rules Stats Wind Profile Meteogram Temp Stats Airport Information Weather charts Add Link Nearby VenuesMetar ALERT Operation Metar Decoded Social comments

AIRNAV info for KMSS